sensor_id;sensor_type;location;lat;lon;timestamp;temperature;humidity
83146;DHT22;73037;51.110;4.706;2024-02-26T00:02:00;6.60;85.30
83146;DHT22;73037;51.110;4.706;2024-02-26T00:04:26;6.60;85.10
83146;DHT22;73037;51.110;4.706;2024-02-26T00:06:51;6.50;85.10
83146;DHT22;73037;51.110;4.706;2024-02-26T00:09:19;6.40;85.30
83146;DHT22;73037;51.110;4.706;2024-02-26T00:11:45;6.40;85.30
83146;DHT22;73037;51.110;4.706;2024-02-26T00:14:10;6.40;85.40
83146;DHT22;73037;51.110;4.706;2024-02-26T00:16:36;6.40;85.30
83146;DHT22;73037;51.110;4.706;2024-02-26T00:19:05;6.40;85.40
83146;DHT22;73037;51.110;4.706;2024-02-26T00:21:30;6.40;85.20
83146;DHT22;73037;51.110;4.706;2024-02-26T00:23:56;6.30;85.40
83146;DHT22;73037;51.110;4.706;2024-02-26T00:26:21;6.40;85.50
83146;DHT22;73037;51.110;4.706;2024-02-26T00:28:47;6.30;85.40
83146;DHT22;73037;51.110;4.706;2024-02-26T00:31:13;6.30;85.50
83146;DHT22;73037;51.110;4.706;2024-02-26T00:33:38;6.40;85.50
83146;DHT22;73037;51.110;4.706;2024-02-26T00:36:04;6.40;85.50
83146;DHT22;73037;51.110;4.706;2024-02-26T00:38:30;6.40;85.40
83146;DHT22;73037;51.110;4.706;2024-02-26T00:40:56;6.40;85.40
83146;DHT22;73037;51.110;4.706;2024-02-26T00:43:21;6.30;85.50
83146;DHT22;73037;51.110;4.706;2024-02-26T00:45:47;6.40;85.70
83146;DHT22;73037;51.110;4.706;2024-02-26T00:48:13;6.30;85.40
83146;DHT22;73037;51.110;4.706;2024-02-26T00:50:39;6.40;85.60
83146;DHT22;73037;51.110;4.706;2024-02-26T00:53:05;6.40;85.50
83146;DHT22;73037;51.110;4.706;2024-02-26T00:55:31;6.50;85.40
83146;DHT22;73037;51.110;4.706;2024-02-26T00:57:57;6.50;85.40
83146;DHT22;73037;51.110;4.706;2024-02-26T01:00:22;6.40;85.50
83146;DHT22;73037;51.110;4.706;2024-02-26T01:02:48;6.50;85.50
83146;DHT22;73037;51.110;4.706;2024-02-26T01:05:14;6.40;85.50
83146;DHT22;73037;51.110;4.706;2024-02-26T01:07:40;6.40;85.60
83146;DHT22;73037;51.110;4.706;2024-02-26T01:10:06;6.40;85.50
83146;DHT22;73037;51.110;4.706;2024-02-26T01:12:33;6.30;85.70
83146;DHT22;73037;51.110;4.706;2024-02-26T01:14:59;6.30;85.70
83146;DHT22;73037;51.110;4.706;2024-02-26T01:17:25;6.30;85.80
83146;DHT22;73037;51.110;4.706;2024-02-26T01:19:50;6.30;85.80
83146;DHT22;73037;51.110;4.706;2024-02-26T01:22:18;6.20;85.80
83146;DHT22;73037;51.110;4.706;2024-02-26T01:24:43;6.20;85.90
83146;DHT22;73037;51.110;4.706;2024-02-26T01:27:09;6.20;85.90
83146;DHT22;73037;51.110;4.706;2024-02-26T01:29:35;6.30;86.10
83146;DHT22;73037;51.110;4.706;2024-02-26T01:32:00;6.10;86.10
83146;DHT22;73037;51.110;4.706;2024-02-26T01:34:26;6.10;86.20
83146;DHT22;73037;51.110;4.706;2024-02-26T01:36:52;6.20;86.20
83146;DHT22;73037;51.110;4.706;2024-02-26T01:39:17;6.00;84.80
83146;DHT22;73037;51.110;4.706;2024-02-26T01:41:43;6.00;85.20
83146;DHT22;73037;51.110;4.706;2024-02-26T01:44:12;5.90;85.70
83146;DHT22;73037;51.110;4.706;2024-02-26T01:46:38;5.80;86.20
83146;DHT22;73037;51.110;4.706;2024-02-26T01:49:04;5.80;86.30
83146;DHT22;73037;51.110;4.706;2024-02-26T01:51:31;5.80;86.40
83146;DHT22;73037;51.110;4.706;2024-02-26T01:53:58;5.80;86.50
83146;DHT22;73037;51.110;4.706;2024-02-26T01:56:25;5.90;86.60
83146;DHT22;73037;51.110;4.706;2024-02-26T01:58:56;5.90;86.60
83146;DHT22;73037;51.110;4.706;2024-02-26T02:01:23;5.80;86.80
83146;DHT22;73037;51.110;4.706;2024-02-26T02:03:51;5.80;86.90
83146;DHT22;73037;51.110;4.706;2024-02-26T02:06:17;5.80;87.00
83146;DHT22;73037;51.110;4.706;2024-02-26T02:08:43;5.80;87.00
83146;DHT22;73037;51.110;4.706;2024-02-26T02:11:09;5.80;87.10
83146;DHT22;73037;51.110;4.706;2024-02-26T02:13:37;5.90;87.10
83146;DHT22;73037;51.110;4.706;2024-02-26T02:16:03;5.80;87.20
83146;DHT22;73037;51.110;4.706;2024-02-26T02:18:29;5.80;87.30
83146;DHT22;73037;51.110;4.706;2024-02-26T02:20:55;5.80;87.40
83146;DHT22;73037;51.110;4.706;2024-02-26T02:23:22;5.80;87.50
83146;DHT22;73037;51.110;4.706;2024-02-26T02:25:47;5.80;87.60
83146;DHT22;73037;51.110;4.706;2024-02-26T02:28:13;5.70;87.70
83146;DHT22;73037;51.110;4.706;2024-02-26T02:30:39;5.80;87.70
83146;DHT22;73037;51.110;4.706;2024-02-26T02:33:06;5.80;87.80
83146;DHT22;73037;51.110;4.706;2024-02-26T02:35:31;5.80;87.80
83146;DHT22;73037;51.110;4.706;2024-02-26T02:37:57;5.80;87.80
83146;DHT22;73037;51.110;4.706;2024-02-26T02:40:23;5.70;87.80
83146;DHT22;73037;51.110;4.706;2024-02-26T02:42:49;5.70;88.20
83146;DHT22;73037;51.110;4.706;2024-02-26T02:45:14;5.70;88.40
83146;DHT22;73037;51.110;4.706;2024-02-26T02:47:40;5.70;88.50
83146;DHT22;73037;51.110;4.706;2024-02-26T02:50:06;5.70;88.60
83146;DHT22;73037;51.110;4.706;2024-02-26T02:52:32;5.70;88.60
83146;DHT22;73037;51.110;4.706;2024-02-26T02:54:58;5.80;88.70
83146;DHT22;73037;51.110;4.706;2024-02-26T02:57:24;5.70;88.70
83146;DHT22;73037;51.110;4.706;2024-02-26T02:59:49;5.70;88.70
83146;DHT22;73037;51.110;4.706;2024-02-26T03:02:15;5.70;88.80
83146;DHT22;73037;51.110;4.706;2024-02-26T03:04:41;5.70;88.90
83146;DHT22;73037;51.110;4.706;2024-02-26T03:07:06;5.80;88.90
83146;DHT22;73037;51.110;4.706;2024-02-26T03:09:32;5.90;88.90
83146;DHT22;73037;51.110;4.706;2024-02-26T03:11:57;5.90;88.90
83146;DHT22;73037;51.110;4.706;2024-02-26T03:14:23;5.80;88.90
83146;DHT22;73037;51.110;4.706;2024-02-26T03:16:54;5.80;89.00
83146;DHT22;73037;51.110;4.706;2024-02-26T03:19:20;5.70;89.00
83146;DHT22;73037;51.110;4.706;2024-02-26T03:21:45;5.70;89.10
83146;DHT22;73037;51.110;4.706;2024-02-26T03:24:11;5.70;89.00
83146;DHT22;73037;51.110;4.706;2024-02-26T03:26:37;5.60;89.00
83146;DHT22;73037;51.110;4.706;2024-02-26T03:29:03;5.70;89.10
83146;DHT22;73037;51.110;4.706;2024-02-26T03:31:29;5.70;89.10
83146;DHT22;73037;51.110;4.706;2024-02-26T03:33:55;5.70;89.10
83146;DHT22;73037;51.110;4.706;2024-02-26T03:36:20;5.70;89.20
83146;DHT22;73037;51.110;4.706;2024-02-26T03:38:47;5.80;89.20
83146;DHT22;73037;51.110;4.706;2024-02-26T03:41:13;5.80;89.20
83146;DHT22;73037;51.110;4.706;2024-02-26T03:43:39;5.70;89.10
83146;DHT22;73037;51.110;4.706;2024-02-26T03:46:07;5.70;89.20
83146;DHT22;73037;51.110;4.706;2024-02-26T03:48:34;5.70;89.20
83146;DHT22;73037;51.110;4.706;2024-02-26T03:50:59;5.70;89.30
83146;DHT22;73037;51.110;4.706;2024-02-26T03:53:26;5.70;89.30
83146;DHT22;73037;51.110;4.706;2024-02-26T03:55:51;5.70;89.30
83146;DHT22;73037;51.110;4.706;2024-02-26T03:58:18;5.80;89.30
83146;DHT22;73037;51.110;4.706;2024-02-26T04:00:43;5.70;89.30
83146;DHT22;73037;51.110;4.706;2024-02-26T04:03:09;5.70;89.30
83146;DHT22;73037;51.110;4.706;2024-02-26T04:05:35;5.70;89.20
83146;DHT22;73037;51.110;4.706;2024-02-26T04:08:01;5.70;89.30
83146;DHT22;73037;51.110;4.706;2024-02-26T04:10:26;5.70;89.30
83146;DHT22;73037;51.110;4.706;2024-02-26T04:12:52;5.70;89.40
83146;DHT22;73037;51.110;4.706;2024-02-26T04:15:18;5.70;89.40
83146;DHT22;73037;51.110;4.706;2024-02-26T04:17:43;5.70;89.30
83146;DHT22;73037;51.110;4.706;2024-02-26T04:20:14;5.80;89.30
83146;DHT22;73037;51.110;4.706;2024-02-26T04:22:44;5.80;89.30
83146;DHT22;73037;51.110;4.706;2024-02-26T04:25:09;5.70;89.30
83146;DHT22;73037;51.110;4.706;2024-02-26T04:27:35;5.70;89.30
83146;DHT22;73037;51.110;4.706;2024-02-26T04:30:01;5.60;89.30
83146;DHT22;73037;51.110;4.706;2024-02-26T04:32:26;5.60;89.30
83146;DHT22;73037;51.110;4.706;2024-02-26T04:34:53;5.70;89.30
83146;DHT22;73037;51.110;4.706;2024-02-26T04:37:19;5.60;89.30
83146;DHT22;73037;51.110;4.706;2024-02-26T04:39:45;5.70;89.30
83146;DHT22;73037;51.110;4.706;2024-02-26T04:42:11;5.70;89.30
83146;DHT22;73037;51.110;4.706;2024-02-26T04:44:36;5.80;89.20
83146;DHT22;73037;51.110;4.706;2024-02-26T04:47:02;5.90;89.30
83146;DHT22;73037;51.110;4.706;2024-02-26T04:49:28;5.80;89.20
83146;DHT22;73037;51.110;4.706;2024-02-26T04:51:53;5.90;89.20
83146;DHT22;73037;51.110;4.706;2024-02-26T04:54:20;5.80;89.20
83146;DHT22;73037;51.110;4.706;2024-02-26T04:56:46;5.80;89.20
83146;DHT22;73037;51.110;4.706;2024-02-26T04:59:11;5.80;89.20
83146;DHT22;73037;51.110;4.706;2024-02-26T05:01:37;5.90;89.10
83146;DHT22;73037;51.110;4.706;2024-02-26T05:04:03;5.90;89.20
83146;DHT22;73037;51.110;4.706;2024-02-26T05:06:29;5.80;89.10
83146;DHT22;73037;51.110;4.706;2024-02-26T05:08:54;5.70;89.20
83146;DHT22;73037;51.110;4.706;2024-02-26T05:11:20;5.70;89.10
83146;DHT22;73037;51.110;4.706;2024-02-26T05:13:47;5.80;89.10
83146;DHT22;73037;51.110;4.706;2024-02-26T05:16:13;5.80;89.10
83146;DHT22;73037;51.110;4.706;2024-02-26T05:18:38;5.70;89.10
83146;DHT22;73037;51.110;4.706;2024-02-26T05:21:04;5.70;89.00
83146;DHT22;73037;51.110;4.706;2024-02-26T05:23:30;5.70;89.00
83146;DHT22;73037;51.110;4.706;2024-02-26T05:25:55;5.70;89.00
83146;DHT22;73037;51.110;4.706;2024-02-26T05:28:21;5.70;89.00
83146;DHT22;73037;51.110;4.706;2024-02-26T05:30:47;5.70;89.00
83146;DHT22;73037;51.110;4.706;2024-02-26T05:33:12;5.70;89.00
83146;DHT22;73037;51.110;4.706;2024-02-26T05:35:38;5.60;89.00
83146;DHT22;73037;51.110;4.706;2024-02-26T05:38:04;5.70;89.00
83146;DHT22;73037;51.110;4.706;2024-02-26T05:40:29;5.70;89.00
83146;DHT22;73037;51.110;4.706;2024-02-26T05:42:55;5.70;88.90
83146;DHT22;73037;51.110;4.706;2024-02-26T05:45:21;5.70;88.90
83146;DHT22;73037;51.110;4.706;2024-02-26T05:47:47;5.70;88.90
83146;DHT22;73037;51.110;4.706;2024-02-26T05:50:13;5.70;88.90
83146;DHT22;73037;51.110;4.706;2024-02-26T05:52:40;5.70;88.90
83146;DHT22;73037;51.110;4.706;2024-02-26T05:55:06;5.70;88.90
83146;DHT22;73037;51.110;4.706;2024-02-26T05:57:34;5.60;88.90
83146;DHT22;73037;51.110;4.706;2024-02-26T05:59:59;5.60;88.90
83146;DHT22;73037;51.110;4.706;2024-02-26T06:02:30;5.60;88.90
83146;DHT22;73037;51.110;4.706;2024-02-26T06:04:55;5.70;88.90
83146;DHT22;73037;51.110;4.706;2024-02-26T06:07:21;5.70;88.90
83146;DHT22;73037;51.110;4.706;2024-02-26T06:09:46;5.70;88.90
83146;DHT22;73037;51.110;4.706;2024-02-26T06:12:13;5.70;88.90
83146;DHT22;73037;51.110;4.706;2024-02-26T06:14:39;5.70;88.90
83146;DHT22;73037;51.110;4.706;2024-02-26T06:17:05;5.70;88.90
83146;DHT22;73037;51.110;4.706;2024-02-26T06:19:32;5.70;88.90
83146;DHT22;73037;51.110;4.706;2024-02-26T06:21:58;5.60;88.90
83146;DHT22;73037;51.110;4.706;2024-02-26T06:24:23;5.70;88.80
83146;DHT22;73037;51.110;4.706;2024-02-26T06:26:49;5.70;88.90
83146;DHT22;73037;51.110;4.706;2024-02-26T06:29:15;5.70;88.80
83146;DHT22;73037;51.110;4.706;2024-02-26T06:31:40;5.60;88.80
83146;DHT22;73037;51.110;4.706;2024-02-26T06:34:06;5.50;88.80
83146;DHT22;73037;51.110;4.706;2024-02-26T06:36:32;5.60;88.90
83146;DHT22;73037;51.110;4.706;2024-02-26T06:38:58;5.60;88.80
83146;DHT22;73037;51.110;4.706;2024-02-26T06:41:24;5.50;88.80
83146;DHT22;73037;51.110;4.706;2024-02-26T06:43:56;5.60;88.80
83146;DHT22;73037;51.110;4.706;2024-02-26T06:46:24;5.70;88.80
83146;DHT22;73037;51.110;4.706;2024-02-26T06:48:51;5.60;88.70
83146;DHT22;73037;51.110;4.706;2024-02-26T06:51:17;5.60;88.70
83146;DHT22;73037;51.110;4.706;2024-02-26T06:53:43;5.60;88.70
83146;DHT22;73037;51.110;4.706;2024-02-26T06:56:09;5.50;88.70
83146;DHT22;73037;51.110;4.706;2024-02-26T06:58:34;5.60;88.70
83146;DHT22;73037;51.110;4.706;2024-02-26T07:01:00;5.60;88.70
83146;DHT22;73037;51.110;4.706;2024-02-26T07:03:25;5.60;88.70
83146;DHT22;73037;51.110;4.706;2024-02-26T07:05:51;5.60;88.70
83146;DHT22;73037;51.110;4.706;2024-02-26T07:08:17;5.50;88.70
83146;DHT22;73037;51.110;4.706;2024-02-26T07:10:43;5.60;88.70
83146;DHT22;73037;51.110;4.706;2024-02-26T07:13:09;5.70;88.70
83146;DHT22;73037;51.110;4.706;2024-02-26T07:15:34;5.50;88.70
83146;DHT22;73037;51.110;4.706;2024-02-26T07:18:00;5.60;88.70
83146;DHT22;73037;51.110;4.706;2024-02-26T07:20:29;5.60;88.70
83146;DHT22;73037;51.110;4.706;2024-02-26T07:22:56;5.60;88.70
83146;DHT22;73037;51.110;4.706;2024-02-26T07:25:22;5.60;88.80
83146;DHT22;73037;51.110;4.706;2024-02-26T07:27:47;5.60;88.80
83146;DHT22;73037;51.110;4.706;2024-02-26T07:30:13;5.60;88.70
83146;DHT22;73037;51.110;4.706;2024-02-26T07:32:40;5.60;88.70
83146;DHT22;73037;51.110;4.706;2024-02-26T07:35:05;5.70;88.70
83146;DHT22;73037;51.110;4.706;2024-02-26T07:37:31;5.80;88.70
83146;DHT22;73037;51.110;4.706;2024-02-26T07:39:57;5.70;88.70
83146;DHT22;73037;51.110;4.706;2024-02-26T07:42:22;5.80;88.70
83146;DHT22;73037;51.110;4.706;2024-02-26T07:44:48;5.70;88.70
83146;DHT22;73037;51.110;4.706;2024-02-26T07:47:14;5.80;88.70
83146;DHT22;73037;51.110;4.706;2024-02-26T07:49:40;5.90;88.70
83146;DHT22;73037;51.110;4.706;2024-02-26T07:52:06;5.80;88.70
83146;DHT22;73037;51.110;4.706;2024-02-26T07:54:31;5.80;88.70
83146;DHT22;73037;51.110;4.706;2024-02-26T07:56:57;5.70;88.70
83146;DHT22;73037;51.110;4.706;2024-02-26T07:59:23;5.70;88.70
83146;DHT22;73037;51.110;4.706;2024-02-26T08:01:50;5.80;88.70
83146;DHT22;73037;51.110;4.706;2024-02-26T08:04:16;5.80;88.70
83146;DHT22;73037;51.110;4.706;2024-02-26T08:06:42;5.90;88.70
83146;DHT22;73037;51.110;4.706;2024-02-26T08:09:08;5.90;88.70
83146;DHT22;73037;51.110;4.706;2024-02-26T08:11:34;5.90;88.70
83146;DHT22;73037;51.110;4.706;2024-02-26T08:14:00;5.90;88.70
83146;DHT22;73037;51.110;4.706;2024-02-26T08:16:26;5.90;88.70
83146;DHT22;73037;51.110;4.706;2024-02-26T08:18:52;5.80;88.60
83146;DHT22;73037;51.110;4.706;2024-02-26T08:21:18;5.80;88.70
83146;DHT22;73037;51.110;4.706;2024-02-26T08:23:43;5.80;88.60
83146;DHT22;73037;51.110;4.706;2024-02-26T08:26:09;5.80;88.60
83146;DHT22;73037;51.110;4.706;2024-02-26T08:28:37;5.80;88.60
83146;DHT22;73037;51.110;4.706;2024-02-26T08:31:03;5.70;88.60
83146;DHT22;73037;51.110;4.706;2024-02-26T08:33:29;5.70;88.60
83146;DHT22;73037;51.110;4.706;2024-02-26T08:35:56;5.70;88.60
83146;DHT22;73037;51.110;4.706;2024-02-26T08:38:22;5.70;88.60
83146;DHT22;73037;51.110;4.706;2024-02-26T08:40:48;5.80;88.60
83146;DHT22;73037;51.110;4.706;2024-02-26T08:43:14;5.70;88.60
83146;DHT22;73037;51.110;4.706;2024-02-26T08:45:40;5.70;88.60
83146;DHT22;73037;51.110;4.706;2024-02-26T08:48:06;5.70;88.60
83146;DHT22;73037;51.110;4.706;2024-02-26T08:50:32;5.70;88.60
83146;DHT22;73037;51.110;4.706;2024-02-26T08:52:57;5.70;88.60
83146;DHT22;73037;51.110;4.706;2024-02-26T08:55:23;5.70;88.60
83146;DHT22;73037;51.110;4.706;2024-02-26T08:57:48;5.70;88.60
83146;DHT22;73037;51.110;4.706;2024-02-26T09:00:14;5.80;88.60
83146;DHT22;73037;51.110;4.706;2024-02-26T09:02:46;5.80;88.60
83146;DHT22;73037;51.110;4.706;2024-02-26T09:05:12;5.80;88.60
83146;DHT22;73037;51.110;4.706;2024-02-26T09:07:37;5.70;88.60
83146;DHT22;73037;51.110;4.706;2024-02-26T09:10:04;5.60;88.60
83146;DHT22;73037;51.110;4.706;2024-02-26T09:12:30;5.70;88.60
83146;DHT22;73037;51.110;4.706;2024-02-26T09:14:56;5.90;88.60
83146;DHT22;73037;51.110;4.706;2024-02-26T09:17:23;5.90;88.60
83146;DHT22;73037;51.110;4.706;2024-02-26T09:19:48;5.90;88.60
83146;DHT22;73037;51.110;4.706;2024-02-26T09:22:14;5.80;88.60
83146;DHT22;73037;51.110;4.706;2024-02-26T09:24:40;5.80;88.60
83146;DHT22;73037;51.110;4.706;2024-02-26T09:27:05;5.80;88.60
83146;DHT22;73037;51.110;4.706;2024-02-26T09:29:31;5.90;88.70
83146;DHT22;73037;51.110;4.706;2024-02-26T09:31:58;5.90;88.60
83146;DHT22;73037;51.110;4.706;2024-02-26T09:34:24;5.90;88.60
83146;DHT22;73037;51.110;4.706;2024-02-26T09:36:50;5.90;88.70
83146;DHT22;73037;51.110;4.706;2024-02-26T09:39:15;5.90;88.70
83146;DHT22;73037;51.110;4.706;2024-02-26T09:41:47;5.90;88.70
83146;DHT22;73037;51.110;4.706;2024-02-26T09:44:18;5.90;88.70
83146;DHT22;73037;51.110;4.706;2024-02-26T09:46:45;5.90;88.70
83146;DHT22;73037;51.110;4.706;2024-02-26T09:49:13;6.10;88.70
83146;DHT22;73037;51.110;4.706;2024-02-26T09:51:40;6.10;88.70
83146;DHT22;73037;51.110;4.706;2024-02-26T09:54:09;6.00;88.70
83146;DHT22;73037;51.110;4.706;2024-02-26T09:56:38;6.00;88.70
83146;DHT22;73037;51.110;4.706;2024-02-26T09:59:06;6.00;88.70
83146;DHT22;73037;51.110;4.706;2024-02-26T10:01:36;6.00;88.70
83146;DHT22;73037;51.110;4.706;2024-02-26T10:04:03;6.10;88.70
83146;DHT22;73037;51.110;4.706;2024-02-26T10:06:29;6.10;88.70
83146;DHT22;73037;51.110;4.706;2024-02-26T10:08:56;6.10;88.70
83146;DHT22;73037;51.110;4.706;2024-02-26T10:11:24;6.00;88.70
83146;DHT22;73037;51.110;4.706;2024-02-26T10:13:49;5.90;88.60
83146;DHT22;73037;51.110;4.706;2024-02-26T10:16:16;5.90;88.70
83146;DHT22;73037;51.110;4.706;2024-02-26T10:18:52;5.80;88.60
83146;DHT22;73037;51.110;4.706;2024-02-26T10:21:20;5.70;88.60
83146;DHT22;73037;51.110;4.706;2024-02-26T10:23:46;5.90;88.60
83146;DHT22;73037;51.110;4.706;2024-02-26T10:26:14;5.90;88.60
83146;DHT22;73037;51.110;4.706;2024-02-26T10:28:41;5.90;88.60
83146;DHT22;73037;51.110;4.706;2024-02-26T10:31:07;5.90;88.60
83146;DHT22;73037;51.110;4.706;2024-02-26T10:33:34;5.90;88.60
83146;DHT22;73037;51.110;4.706;2024-02-26T10:36:02;5.80;88.60
83146;DHT22;73037;51.110;4.706;2024-02-26T10:38:29;5.70;88.70
83146;DHT22;73037;51.110;4.706;2024-02-26T10:40:55;5.70;88.60
83146;DHT22;73037;51.110;4.706;2024-02-26T10:43:20;5.60;88.60
83146;DHT22;73037;51.110;4.706;2024-02-26T10:45:46;5.80;88.70
83146;DHT22;73037;51.110;4.706;2024-02-26T10:48:14;5.80;88.60
83146;DHT22;73037;51.110;4.706;2024-02-26T10:50:40;5.80;88.60
83146;DHT22;73037;51.110;4.706;2024-02-26T10:53:28;5.80;88.70
83146;DHT22;73037;51.110;4.706;2024-02-26T10:56:04;5.70;88.60
83146;DHT22;73037;51.110;4.706;2024-02-26T10:58:31;5.70;88.60
83146;DHT22;73037;51.110;4.706;2024-02-26T11:00:57;5.70;88.70
83146;DHT22;73037;51.110;4.706;2024-02-26T11:03:24;5.90;88.60
83146;DHT22;73037;51.110;4.706;2024-02-26T11:05:50;5.70;88.60
83146;DHT22;73037;51.110;4.706;2024-02-26T11:08:18;5.70;88.60
83146;DHT22;73037;51.110;4.706;2024-02-26T11:10:47;5.60;88.70
83146;DHT22;73037;51.110;4.706;2024-02-26T11:13:15;5.70;88.70
83146;DHT22;73037;51.110;4.706;2024-02-26T11:15:43;5.70;88.70
83146;DHT22;73037;51.110;4.706;2024-02-26T11:18:10;5.70;88.70
83146;DHT22;73037;51.110;4.706;2024-02-26T11:20:39;5.80;88.80
83146;DHT22;73037;51.110;4.706;2024-02-26T11:23:07;5.80;88.90
83146;DHT22;73037;51.110;4.706;2024-02-26T11:25:34;5.70;88.90
83146;DHT22;73037;51.110;4.706;2024-02-26T11:28:02;5.60;88.90
83146;DHT22;73037;51.110;4.706;2024-02-26T11:30:31;5.70;88.90
83146;DHT22;73037;51.110;4.706;2024-02-26T11:32:58;5.70;88.90
83146;DHT22;73037;51.110;4.706;2024-02-26T11:35:24;5.60;88.90
83146;DHT22;73037;51.110;4.706;2024-02-26T11:37:56;5.70;88.90
83146;DHT22;73037;51.110;4.706;2024-02-26T11:40:26;5.70;89.00
83146;DHT22;73037;51.110;4.706;2024-02-26T11:42:53;5.70;89.00
83146;DHT22;73037;51.110;4.706;2024-02-26T11:48:14;6.00;89.00
83146;DHT22;73037;51.110;4.706;2024-02-26T11:55:45;5.80;89.00
83146;DHT22;73037;51.110;4.706;2024-02-26T11:58:10;5.80;89.00
83146;DHT22;73037;51.110;4.706;2024-02-26T12:00:36;5.80;89.00
83146;DHT22;73037;51.110;4.706;2024-02-26T12:03:02;5.70;88.90
83146;DHT22;73037;51.110;4.706;2024-02-26T12:05:33;5.60;88.90
83146;DHT22;73037;51.110;4.706;2024-02-26T12:08:03;5.70;89.00
83146;DHT22;73037;51.110;4.706;2024-02-26T12:10:33;5.70;89.00
83146;DHT22;73037;51.110;4.706;2024-02-26T12:13:12;5.80;88.90
83146;DHT22;73037;51.110;4.706;2024-02-26T12:15:43;5.70;88.90
83146;DHT22;73037;51.110;4.706;2024-02-26T12:18:10;5.70;88.90
83146;DHT22;73037;51.110;4.706;2024-02-26T12:20:40;5.70;88.90
83146;DHT22;73037;51.110;4.706;2024-02-26T12:23:06;5.60;88.90
83146;DHT22;73037;51.110;4.706;2024-02-26T12:25:32;5.50;88.90
83146;DHT22;73037;51.110;4.706;2024-02-26T12:27:59;5.50;88.90
83146;DHT22;73037;51.110;4.706;2024-02-26T12:30:25;5.50;88.90
83146;DHT22;73037;51.110;4.706;2024-02-26T12:32:52;-50.00;72.90
83146;DHT22;73037;51.110;4.706;2024-02-26T12:35:23;-50.00;72.90
83146;DHT22;73037;51.110;4.706;2024-02-26T12:37:49;-50.00;72.80
83146;DHT22;73037;51.110;4.706;2024-02-26T12:40:17;-50.00;72.90
83146;DHT22;73037;51.110;4.706;2024-02-26T12:42:44;-50.00;72.90
83146;DHT22;73037;51.110;4.706;2024-02-26T12:45:11;-50.00;72.80
83146;DHT22;73037;51.110;4.706;2024-02-26T12:47:41;-50.00;72.80
83146;DHT22;73037;51.110;4.706;2024-02-26T12:50:08;-50.00;72.90
83146;DHT22;73037;51.110;4.706;2024-02-26T12:52:35;-50.00;72.90
83146;DHT22;73037;51.110;4.706;2024-02-26T12:55:01;-50.00;72.70
83146;DHT22;73037;51.110;4.706;2024-02-26T12:57:31;-50.00;72.70
83146;DHT22;73037;51.110;4.706;2024-02-26T12:59:59;-50.00;72.80
83146;DHT22;73037;51.110;4.706;2024-02-26T13:02:25;-50.00;72.70
83146;DHT22;73037;51.110;4.706;2024-02-26T13:04:52;-50.00;72.60
83146;DHT22;73037;51.110;4.706;2024-02-26T13:07:19;-50.00;72.50
83146;DHT22;73037;51.110;4.706;2024-02-26T13:09:45;-50.00;72.50
83146;DHT22;73037;51.110;4.706;2024-02-26T13:12:12;-50.00;72.60
83146;DHT22;73037;51.110;4.706;2024-02-26T13:14:38;-50.00;72.60
83146;DHT22;73037;51.110;4.706;2024-02-26T13:17:04;-50.00;72.60
83146;DHT22;73037;51.110;4.706;2024-02-26T13:19:30;-50.00;72.70
83146;DHT22;73037;51.110;4.706;2024-02-26T13:21:56;-50.00;72.60
83146;DHT22;73037;51.110;4.706;2024-02-26T13:24:22;-50.00;72.70
83146;DHT22;73037;51.110;4.706;2024-02-26T13:26:54;-50.00;72.50
83146;DHT22;73037;51.110;4.706;2024-02-26T13:29:20;-50.00;72.70
83146;DHT22;73037;51.110;4.706;2024-02-26T13:31:46;-50.00;72.70
83146;DHT22;73037;51.110;4.706;2024-02-26T13:34:28;-50.00;72.70
83146;DHT22;73037;51.110;4.706;2024-02-26T13:36:57;-50.00;72.80
83146;DHT22;73037;51.110;4.706;2024-02-26T13:39:27;-50.00;72.70
83146;DHT22;73037;51.110;4.706;2024-02-26T13:41:53;-50.00;72.50
83146;DHT22;73037;51.110;4.706;2024-02-26T13:44:20;-50.00;72.50
83146;DHT22;73037;51.110;4.706;2024-02-26T13:46:47;-50.00;72.50
83146;DHT22;73037;51.110;4.706;2024-02-26T13:49:12;-50.00;72.40
83146;DHT22;73037;51.110;4.706;2024-02-26T13:51:41;-50.00;72.50
83146;DHT22;73037;51.110;4.706;2024-02-26T13:54:07;-50.00;72.50
83146;DHT22;73037;51.110;4.706;2024-02-26T13:56:33;-50.00;72.40
83146;DHT22;73037;51.110;4.706;2024-02-26T13:58:59;-50.00;72.50
83146;DHT22;73037;51.110;4.706;2024-02-26T14:01:25;-50.00;72.40
83146;DHT22;73037;51.110;4.706;2024-02-26T14:03:51;-50.00;72.40
83146;DHT22;73037;51.110;4.706;2024-02-26T14:06:20;-50.00;72.60
83146;DHT22;73037;51.110;4.706;2024-02-26T14:08:46;-50.00;72.50
83146;DHT22;73037;51.110;4.706;2024-02-26T14:11:12;-50.00;72.50
83146;DHT22;73037;51.110;4.706;2024-02-26T14:13:37;-50.00;72.60
83146;DHT22;73037;51.110;4.706;2024-02-26T14:16:03;-50.00;72.50
83146;DHT22;73037;51.110;4.706;2024-02-26T14:18:29;-50.00;72.40
83146;DHT22;73037;51.110;4.706;2024-02-26T14:20:55;-50.00;72.60
83146;DHT22;73037;51.110;4.706;2024-02-26T14:23:20;-50.00;72.60
83146;DHT22;73037;51.110;4.706;2024-02-26T14:25:46;-50.00;72.80
83146;DHT22;73037;51.110;4.706;2024-02-26T14:28:11;-50.00;72.80
83146;DHT22;73037;51.110;4.706;2024-02-26T14:30:37;-50.00;72.80
83146;DHT22;73037;51.110;4.706;2024-02-26T14:33:03;-50.00;73.00
83146;DHT22;73037;51.110;4.706;2024-02-26T14:35:28;-50.00;72.80
83146;DHT22;73037;51.110;4.706;2024-02-26T14:37:54;-50.00;72.90
83146;DHT22;73037;51.110;4.706;2024-02-26T14:40:20;-50.00;73.00
83146;DHT22;73037;51.110;4.706;2024-02-26T14:42:46;-50.00;72.90
83146;DHT22;73037;51.110;4.706;2024-02-26T14:45:12;-50.00;72.90
83146;DHT22;73037;51.110;4.706;2024-02-26T14:47:38;-50.00;73.10
83146;DHT22;73037;51.110;4.706;2024-02-26T14:50:04;-50.00;73.00
83146;DHT22;73037;51.110;4.706;2024-02-26T14:52:30;-50.00;73.00
83146;DHT22;73037;51.110;4.706;2024-02-26T14:54:56;-50.00;73.00
83146;DHT22;73037;51.110;4.706;2024-02-26T14:57:24;-50.00;72.90
83146;DHT22;73037;51.110;4.706;2024-02-26T14:59:49;-50.00;72.90
83146;DHT22;73037;51.110;4.706;2024-02-26T15:02:16;-50.00;72.90
83146;DHT22;73037;51.110;4.706;2024-02-26T15:04:42;-50.00;73.20
83146;DHT22;73037;51.110;4.706;2024-02-26T15:07:08;-50.00;73.00
83146;DHT22;73037;51.110;4.706;2024-02-26T15:09:35;-50.00;73.10
83146;DHT22;73037;51.110;4.706;2024-02-26T15:12:00;-50.00;73.10
83146;DHT22;73037;51.110;4.706;2024-02-26T15:14:26;-50.00;73.30
83146;DHT22;73037;51.110;4.706;2024-02-26T15:16:52;-50.00;73.20
83146;DHT22;73037;51.110;4.706;2024-02-26T15:19:18;-50.00;73.20
83146;DHT22;73037;51.110;4.706;2024-02-26T15:21:47;-50.00;73.00
83146;DHT22;73037;51.110;4.706;2024-02-26T15:24:13;-50.00;73.10
83146;DHT22;73037;51.110;4.706;2024-02-26T15:26:41;-50.00;73.10
83146;DHT22;73037;51.110;4.706;2024-02-26T15:29:08;-50.00;73.00
83146;DHT22;73037;51.110;4.706;2024-02-26T15:31:34;-50.00;73.20
83146;DHT22;73037;51.110;4.706;2024-02-26T15:34:01;-50.00;73.00
83146;DHT22;73037;51.110;4.706;2024-02-26T15:36:26;-50.00;73.00
83146;DHT22;73037;51.110;4.706;2024-02-26T15:38:52;-50.00;73.10
83146;DHT22;73037;51.110;4.706;2024-02-26T15:41:17;-50.00;73.00
83146;DHT22;73037;51.110;4.706;2024-02-26T15:43:43;-50.00;73.10